Time,TemperatureF,DewpointF,PressureIn,WindDirection,WindDirectionDegrees,WindSpeedMPH,WindSpeedGustMPH,Humidity,HourlyPrecipIn,Conditions,Clouds,dailyrainin,SoftwareType,DateUTC
2013-02-21 00:02:00,62.8,61.6,28.79,ESE,110,10.1,12.3,96,0.00,,,0.00,LWC V2.10 B1813,2013-02-21 06:02:00,
2013-02-21 00:07:00,62.8,61.6,28.79,SSE,155,5.8,7.6,96,0.00,,,0.00,LWC V2.10 B1813,2013-02-21 06:07:00,
2013-02-21 00:12:00,63.0,61.8,28.79,ESE,109,12.8,12.8,96,0.00,,,0.00,LWC V2.10 B1813,2013-02-21 06:12:00,
2013-02-21 00:17:00,63.1,62.0,28.76,East,85,7.6,12.3,96,0.00,,,0.00,LWC V2.10 B1813,2013-02-21 06:17:00,
2013-02-21 00:22:00,63.3,62.2,28.76,East,91,8.3,13.2,96,0.00,,,0.00,LWC V2.10 B1813,2013-02-21 06:22:00,
2013-02-21 00:27:00,63.3,62.2,28.76,ENE,71,8.1,12.8,96,0.00,,,0.00,LWC V2.10 B1813,2013-02-21 06:27:00,
2013-02-21 00:32:00,63.5,62.3,28.76,East,79,4.0,11.4,96,0.00,,,0.00,LWC V2.10 B1813,2013-02-21 06:32:00,
2013-02-21 00:37:00,63.7,62.5,28.76,East,94,4.0,8.1,96,0.00,,,0.00,LWC V2.10 B1813,2013-02-21 06:37:00,
2013-02-21 00:42:00,63.7,62.5,28.76,ESE,118,11.0,11.9,96,0.00,,,0.00,LWC V2.10 B1813,2013-02-21 06:42:00,
2013-02-21 00:47:00,63.9,62.7,28.76,East,99,5.8,9.6,96,0.00,,,0.00,LWC V2.10 B1813,2013-02-21 06:47:00,
2013-02-21 00:52:00,63.9,62.7,28.76,ENE,68,5.4,8.7,96,0.00,,,0.00,LWC V2.10 B1813,2013-02-21 06:52:00,
2013-02-21 00:57:00,64.0,62.9,28.76,ESE,107,5.8,10.1,96,0.00,,,0.00,LWC V2.10 B1813,2013-02-21 06:57:00,
2013-02-21 01:02:00,64.2,63.1,28.79,ESE,103,8.1,12.8,96,0.00,,,0.04,LWC V2.10 B1813,2013-02-21 07:02:00,
2013-02-21 01:07:00,64.8,63.6,28.79,South,183,10.1,11.0,96,0.00,,,0.04,LWC V2.10 B1813,2013-02-21 07:07:00,
2013-02-21 01:12:00,64.9,63.8,28.79,ESE,109,6.3,7.2,96,0.00,,,0.04,LWC V2.10 B1813,2013-02-21 07:12:00,
2013-02-21 01:17:00,65.1,63.9,28.76,South,173,5.4,8.7,96,0.00,,,0.04,LWC V2.10 B1813,2013-02-21 07:17:00,
2013-02-21 01:22:00,65.3,64.1,28.76,SE,137,6.3,10.1,96,0.00,,,0.04,LWC V2.10 B1813,2013-02-21 07:22:00,
2013-02-21 01:27:00,65.3,64.1,28.76,South,180,8.3,10.1,96,0.00,,,0.04,LWC V2.10 B1813,2013-02-21 07:27:00,
2013-02-21 01:32:00,65.5,64.3,28.76,SSE,151,7.6,10.1,96,0.00,,,0.04,LWC V2.10 B1813,2013-02-21 07:32:00,
2013-02-21 01:37:00,65.5,64.3,28.76,SE,134,15.0,15.0,96,0.00,,,0.04,LWC V2.10 B1813,2013-02-21 07:37:00,
2013-02-21 01:42:00,65.7,64.5,28.76,ESE,110,3.6,5.4,96,0.00,,,0.04,LWC V2.10 B1813,2013-02-21 07:42:00,
2013-02-21 01:47:00,65.7,64.5,28.76,ESE,107,8.1,8.7,96,0.00,,,0.04,LWC V2.10 B1813,2013-02-21 07:47:00,
2013-02-21 01:52:00,65.7,64.5,28.76,East,88,8.1,8.3,96,0.00,,,0.04,LWC V2.10 B1813,2013-02-21 07:52:00,
2013-02-21 01:57:00,65.8,64.7,28.76,SSE,148,5.8,8.1,96,0.00,,,0.04,LWC V2.10 B1813,2013-02-21 07:57:00,
2013-02-21 02:02:00,66.0,64.8,28.76,SSW,203,8.3,10.5,96,0.00,,,0.04,LWC V2.10 B1813,2013-02-21 08:02:00,
2013-02-21 02:07:00,66.0,64.8,28.76,East,88,4.0,8.1,96,0.00,,,0.04,LWC V2.10 B1813,2013-02-21 08:07:00,
2013-02-21 02:12:00,66.2,64.7,28.76,SSE,154,8.7,8.7,95,0.00,,,0.04,LWC V2.10 B1813,2013-02-21 08:12:00,
2013-02-21 02:17:00,66.2,64.7,28.76,ESE,107,4.9,9.6,95,0.00,,,0.04,LWC V2.10 B1813,2013-02-21 08:17:00,
2013-02-21 02:22:00,66.2,64.7,28.76,SSE,156,4.0,8.3,95,0.00,,,0.04,LWC V2.10 B1813,2013-02-21 08:22:00,
2013-02-21 02:27:00,66.2,64.7,28.76,East,91,8.1,12.8,95,0.00,,,0.04,LWC V2.10 B1813,2013-02-21 08:27:00,
2013-02-21 02:32:00,66.2,64.7,28.76,SSE,148,3.1,7.6,95,0.00,,,0.04,LWC V2.10 B1813,2013-02-21 08:32:00,
2013-02-21 02:37:00,66.2,64.7,28.76,SE,140,3.1,9.2,95,0.00,,,0.04,LWC V2.10 B1813,2013-02-21 08:37:00,
2013-02-21 02:42:00,66.4,64.9,28.76,ESE,107,8.3,11.9,95,0.00,,,0.04,LWC V2.10 B1813,2013-02-21 08:42:00,
2013-02-21 02:47:00,66.2,64.7,28.76,South,182,7.6,10.5,95,0.00,,,0.04,LWC V2.10 B1813,2013-02-21 08:47:00,
2013-02-21 02:52:00,66.2,64.7,28.76,ESE,109,8.1,8.1,95,0.00,,,0.04,LWC V2.10 B1813,2013-02-21 08:52:00,
2013-02-21 02:57:00,66.4,64.9,28.76,SE,132,5.8,15.4,95,0.00,,,0.04,LWC V2.10 B1813,2013-02-21 08:57:00,
2013-02-21 03:02:00,66.4,64.9,28.73,SSE,156,5.8,8.3,95,0.00,,,0.04,LWC V2.10 B1813,2013-02-21 09:02:00,
2013-02-21 03:07:00,66.6,65.1,28.73,SE,134,12.3,13.6,95,0.00,,,0.04,LWC V2.10 B1813,2013-02-21 09:07:00,
2013-02-21 03:12:00,66.6,65.1,28.73,SW,215,12.8,13.2,95,0.00,,,0.04,LWC V2.10 B1813,2013-02-21 09:12:00,
2013-02-21 03:17:00,66.6,65.1,28.73,SSE,163,7.6,10.5,95,0.00,,,0.04,LWC V2.10 B1813,2013-02-21 09:17:00,
2013-02-21 03:22:00,66.6,65.1,28.73,South,169,7.6,12.8,95,0.00,,,0.04,LWC V2.10 B1813,2013-02-21 09:22:00,
2013-02-21 03:27:00,66.7,65.3,28.73,SE,131,8.7,8.7,95,0.00,,,0.04,LWC V2.10 B1813,2013-02-21 09:27:00,
2013-02-21 03:32:00,66.7,65.3,28.73,SSE,165,8.3,12.8,95,0.00,,,0.04,LWC V2.10 B1813,2013-02-21 09:32:00,
2013-02-21 03:37:00,66.7,65.0,28.73,SE,133,8.3,10.1,94,0.00,,,0.04,LWC V2.10 B1813,2013-02-21 09:37:00,
2013-02-21 03:42:00,66.7,65.0,28.73,SE,138,9.6,13.2,94,0.00,,,0.04,LWC V2.10 B1813,2013-02-21 09:42:00,
2013-02-21 03:47:00,66.7,65.0,28.73,SE,125,8.1,12.3,94,0.00,,,0.04,LWC V2.10 B1813,2013-02-21 09:47:00,
2013-02-21 03:52:00,66.9,65.1,28.73,South,169,10.5,15.4,94,0.00,,,0.04,LWC V2.10 B1813,2013-02-21 09:52:00,
2013-02-21 03:57:00,66.9,65.1,28.73,SSE,168,8.7,11.0,94,0.00,,,0.04,LWC V2.10 B1813,2013-02-21 09:57:00,
2013-02-21 04:02:00,66.9,65.1,28.73,SE,131,6.3,15.0,94,0.00,,,0.04,LWC V2.10 B1813,2013-02-21 10:02:00,
2013-02-21 04:07:00,66.9,65.1,28.73,ESE,105,6.3,10.5,94,0.00,,,0.04,LWC V2.10 B1813,2013-02-21 10:07:00,
2013-02-21 04:12:00,66.7,65.0,28.73,SE,130,3.6,8.3,94,0.00,,,0.04,LWC V2.10 B1813,2013-02-21 10:12:00,
2013-02-21 04:17:00,66.9,65.1,28.73,ESE,116,8.3,10.5,94,0.00,,,0.04,LWC V2.10 B1813,2013-02-21 10:17:00,
2013-02-21 04:22:00,66.9,65.1,28.73,ESE,123,6.3,8.3,94,0.00,,,0.04,LWC V2.10 B1813,2013-02-21 10:22:00,
2013-02-21 04:27:00,67.1,65.3,28.73,ESE,104,5.4,8.7,94,0.00,,,0.04,LWC V2.10 B1813,2013-02-21 10:27:00,
2013-02-21 04:32:00,66.9,65.1,28.70,ESE,117,6.3,8.1,94,0.00,,,0.04,LWC V2.10 B1813,2013-02-21 10:32:00,
2013-02-21 04:37:00,67.1,65.3,28.70,SE,142,6.7,11.4,94,0.00,,,0.04,LWC V2.10 B1813,2013-02-21 10:37:00,
2013-02-21 04:42:00,67.1,65.0,28.70,SE,134,10.5,13.2,93,0.00,,,0.04,LWC V2.10 B1813,2013-02-21 10:42:00,
2013-02-21 04:47:00,67.1,65.0,28.70,SSE,153,4.9,8.3,93,0.00,,,0.04,LWC V2.10 B1813,2013-02-21 10:47:00,
2013-02-21 04:52:00,67.1,65.0,28.70,ESE,102,13.2,13.2,93,0.00,,,0.04,LWC V2.10 B1813,2013-02-21 10:52:00,
2013-02-21 04:57:00,67.3,65.2,28.70,SE,125,10.5,10.5,93,0.00,,,0.04,LWC V2.10 B1813,2013-02-21 10:57:00,
2013-02-21 05:02:00,67.3,65.2,28.70,ENE,74,7.6,11.0,93,0.00,,,0.04,LWC V2.10 B1813,2013-02-21 11:02:00,
2013-02-21 05:07:00,67.3,65.2,28.70,SE,132,8.7,11.0,93,0.00,,,0.04,LWC V2.10 B1813,2013-02-21 11:07:00,
2013-02-21 05:12:00,67.3,65.2,28.70,ESE,118,11.0,11.0,93,0.00,,,0.04,LWC V2.10 B1813,2013-02-21 11:12:00,
2013-02-21 05:17:00,67.3,65.2,28.73,SE,128,2.7,13.2,93,0.00,,,0.04,LWC V2.10 B1813,2013-02-21 11:17:00,
2013-02-21 05:22:00,67.3,65.2,28.73,SSE,150,6.3,8.7,93,0.00,,,0.04,LWC V2.10 B1813,2013-02-21 11:22:00,
2013-02-21 05:27:00,67.5,65.4,28.73,South,187,8.7,11.0,93,0.00,,,0.04,LWC V2.10 B1813,2013-02-21 11:27:00,
2013-02-21 05:32:00,67.5,65.4,28.73,SSE,162,5.8,7.6,93,0.00,,,0.04,LWC V2.10 B1813,2013-02-21 11:32:00,
2013-02-21 05:37:00,67.5,65.0,28.73,SSW,207,4.5,6.3,92,0.00,,,0.04,LWC V2.10 B1813,2013-02-21 11:37:00,
2013-02-21 05:42:00,67.5,65.0,28.73,SSE,156,6.3,10.5,92,0.00,,,0.04,LWC V2.10 B1813,2013-02-21 11:42:00,
2013-02-21 05:47:00,67.5,65.0,28.76,SE,142,8.1,8.1,92,0.00,,,0.04,LWC V2.10 B1813,2013-02-21 11:47:00,
2013-02-21 05:52:00,67.5,65.0,28.76,SSW,205,4.0,6.3,92,0.00,,,0.04,LWC V2.10 B1813,2013-02-21 11:52:00,
2013-02-21 05:58:00,67.6,65.2,28.76,SE,136,4.0,8.1,92,0.00,,,0.04,LWC V2.10 B1813,2013-02-21 11:58:00,
2013-02-21 06:03:00,67.6,65.2,28.76,SSE,157,5.4,8.1,92,0.00,,,0.04,LWC V2.10 B1813,2013-02-21 12:03:00,
2013-02-21 06:08:00,67.6,65.2,28.76,SSW,210,4.0,4.9,92,0.00,,,0.04,LWC V2.10 B1813,2013-02-21 12:08:00,
2013-02-21 06:13:00,67.6,65.2,28.76,SSE,152,4.0,9.6,92,0.00,,,0.04,LWC V2.10 B1813,2013-02-21 12:13:00,
2013-02-21 06:18:00,67.6,65.2,28.76,SSE,161,6.3,7.6,92,0.00,,,0.04,LWC V2.10 B1813,2013-02-21 12:18:00,
2013-02-21 06:23:00,67.5,65.0,28.76,SE,146,7.6,8.3,92,0.00,,,0.04,LWC V2.10 B1813,2013-02-21 12:23:00,
2013-02-21 06:28:00,67.5,65.0,28.76,SSE,151,5.8,10.1,92,0.00,,,0.04,LWC V2.10 B1813,2013-02-21 12:28:00,
2013-02-21 06:33:00,67.3,64.9,28.76,SSE,162,5.4,5.4,92,0.00,,,0.04,LWC V2.10 B1813,2013-02-21 12:33:00,
2013-02-21 06:38:00,67.3,64.9,28.76,SE,131,5.4,6.3,92,0.00,,,0.04,LWC V2.10 B1813,2013-02-21 12:38:00,
2013-02-21 06:43:00,67.3,64.9,28.76,South,173,3.6,10.1,92,0.00,,,0.04,LWC V2.10 B1813,2013-02-21 12:43:00,
2013-02-21 06:48:00,67.1,64.7,28.76,South,182,7.6,8.7,92,0.00,,,0.04,LWC V2.10 B1813,2013-02-21 12:48:00,
2013-02-21 06:53:00,67.1,64.7,28.76,South,188,4.9,11.0,92,0.00,,,0.04,LWC V2.10 B1813,2013-02-21 12:53:00,
2013-02-21 06:58:00,67.1,64.7,28.76,SSW,208,5.4,8.3,92,0.00,,,0.04,LWC V2.10 B1813,2013-02-21 12:58:00,
2013-02-21 07:03:00,66.9,64.5,28.76,SW,217,7.6,7.6,92,0.00,,,0.04,LWC V2.10 B1813,2013-02-21 13:03:00,
2013-02-21 07:08:00,66.7,64.3,28.76,SSE,157,4.0,7.6,92,0.00,,,0.04,LWC V2.10 B1813,2013-02-21 13:08:00,
2013-02-21 07:13:00,66.7,64.3,28.76,SSW,192,4.0,6.3,92,0.00,,,0.04,LWC V2.10 B1813,2013-02-21 13:13:00,
2013-02-21 07:18:00,66.6,64.2,28.79,SSE,163,5.8,5.8,92,0.00,,,0.04,LWC V2.10 B1813,2013-02-21 13:18:00,
2013-02-21 07:23:00,66.6,64.2,28.79,South,177,3.1,6.3,92,0.00,,,0.04,LWC V2.10 B1813,2013-02-21 13:23:00,
2013-02-21 07:28:00,66.6,64.2,28.79,SSW,195,5.8,5.8,92,0.00,,,0.04,LWC V2.10 B1813,2013-02-21 13:28:00,
2013-02-21 07:33:00,66.6,64.2,28.79,SSW,209,5.4,5.8,92,0.00,,,0.04,LWC V2.10 B1813,2013-02-21 13:33:00,
2013-02-21 07:38:00,66.6,64.2,28.79,South,181,3.1,5.4,92,0.00,,,0.04,LWC V2.10 B1813,2013-02-21 13:38:00,
2013-02-21 07:43:00,66.7,64.3,28.79,SW,216,5.4,6.3,92,0.00,,,0.04,LWC V2.10 B1813,2013-02-21 13:43:00,
2013-02-21 07:48:00,66.9,64.5,28.79,SSW,205,3.6,5.8,92,0.00,,,0.04,LWC V2.10 B1813,2013-02-21 13:48:00,
2013-02-21 07:53:00,67.1,64.7,28.79,WSW,241,8.3,10.5,92,0.00,,,0.04,LWC V2.10 B1813,2013-02-21 13:53:00,
2013-02-21 07:58:00,63.9,57.9,28.79,West,272,18.3,21.0,81,0.00,,,0.04,LWC V2.10 B1813,2013-02-21 13:58:00,
2013-02-21 08:03:00,62.4,53.6,28.85,SSW,205,14.1,17.4,73,0.00,,,0.04,LWC V2.10 B1813,2013-02-21 14:03:00,
2013-02-21 08:08:00,61.5,52.0,28.85,North,9,10.5,18.8,71,0.00,,,0.04,LWC V2.10 B1813,2013-02-21 14:08:00,
2013-02-21 08:13:00,60.4,51.4,28.85,NW,306,8.7,17.0,72,0.00,,,0.04,LWC V2.10 B1813,2013-02-21 14:13:00,
2013-02-21 08:18:00,59.7,50.7,28.88,West,276,15.0,15.9,72,0.00,,,0.04,LWC V2.10 B1813,2013-02-21 14:18:00,
2013-02-21 08:23:00,59.4,50.7,28.88,West,266,17.4,17.4,73,0.00,,,0.04,LWC V2.10 B1813,2013-02-21 14:23:00,
2013-02-21 08:28:00,59.4,50.3,28.88,West,275,20.1,20.1,72,0.00,,,0.04,LWC V2.10 B1813,2013-02-21 14:28:00,
2013-02-21 08:33:00,59.5,49.4,28.88,West,280,16.3,16.3,69,0.00,,,0.04,LWC V2.10 B1813,2013-02-21 14:33:00,
2013-02-21 08:38:00,59.7,48.7,28.88,WSW,238,11.0,11.9,67,0.00,,,0.04,LWC V2.10 B1813,2013-02-21 14:38:00,
2013-02-21 08:43:00,59.9,48.1,28.88,North,7,11.0,19.2,65,0.00,,,0.04,LWC V2.10 B1813,2013-02-21 14:43:00,
2013-02-21 08:48:00,60.1,47.4,28.88,West,271,9.6,9.6,63,0.00,,,0.04,LWC V2.10 B1813,2013-02-21 14:48:00,
2013-02-21 08:53:00,60.3,47.2,28.88,West,264,12.8,14.1,62,0.00,,,0.04,LWC V2.10 B1813,2013-02-21 14:53:00,
2013-02-21 08:58:00,60.6,46.2,28.88,WNW,292,8.1,13.2,59,0.00,,,0.04,LWC V2.10 B1813,2013-02-21 14:58:00,
2013-02-21 09:03:00,61.0,46.1,28.91,NW,314,8.7,14.5,58,0.00,,,0.04,LWC V2.10 B1813,2013-02-21 15:03:00,
2013-02-21 09:08:00,61.2,43.9,28.91,SW,219,11.9,12.8,53,0.00,,,0.04,LWC V2.10 B1813,2013-02-21 15:08:00,
2013-02-21 09:13:00,61.3,44.1,28.91,WNW,300,7.2,13.2,53,0.00,,,0.04,LWC V2.10 B1813,2013-02-21 15:13:00,
2013-02-21 09:18:00,61.2,43.4,28.91,WSW,248,5.8,10.5,52,0.00,,,0.04,LWC V2.10 B1813,2013-02-21 15:18:00,
2013-02-21 09:23:00,61.2,42.4,28.91,NW,319,12.3,21.5,50,0.00,,,0.04,LWC V2.10 B1813,2013-02-21 15:23:00,
2013-02-21 09:28:00,61.5,43.2,28.91,WSW,258,11.9,12.3,51,0.00,,,0.04,LWC V2.10 B1813,2013-02-21 15:28:00,
2013-02-21 09:33:00,61.7,43.4,28.91,WNW,301,10.1,10.1,51,0.00,,,0.04,LWC V2.10 B1813,2013-02-21 15:33:00,
2013-02-21 09:38:00,61.7,40.7,28.91,West,280,19.7,19.7,46,0.00,,,0.04,LWC V2.10 B1813,2013-02-21 15:38:00,
2013-02-21 09:43:00,61.7,40.7,28.91,NNW,341,17.4,19.7,46,0.00,,,0.04,LWC V2.10 B1813,2013-02-21 15:43:00,
2013-02-21 09:48:00,61.9,40.3,28.91,WSW,257,7.6,14.1,45,0.00,,,0.04,LWC V2.10 B1813,2013-02-21 15:48:00,
2013-02-21 09:53:00,62.1,40.5,28.91,WNW,286,19.7,19.7,45,0.00,,,0.04,LWC V2.10 B1813,2013-02-21 15:53:00,
2013-02-21 09:58:00,62.1,39.9,28.91,NNW,327,5.8,17.0,44,0.00,,,0.04,LWC V2.10 B1813,2013-02-21 15:58:00,
2013-02-21 10:03:00,62.2,38.9,28.91,West,268,5.8,20.6,42,0.00,,,0.04,LWC V2.10 B1813,2013-02-21 16:03:00,
2013-02-21 10:08:00,62.4,39.0,28.91,NW,314,10.1,15.4,42,0.00,,,0.04,LWC V2.10 B1813,2013-02-21 16:08:00,
2013-02-21 10:13:00,62.4,37.8,28.91,West,267,10.5,25.1,40,0.00,,,0.04,LWC V2.10 B1813,2013-02-21 16:13:00,
2013-02-21 10:18:00,62.4,37.1,28.91,WSW,251,17.4,22.4,39,0.00,,,0.04,LWC V2.10 B1813,2013-02-21 16:18:00,
2013-02-21 10:23:00,62.4,36.5,28.91,West,273,20.1,25.7,38,0.00,,,0.04,LWC V2.10 B1813,2013-02-21 16:23:00,
2013-02-21 10:28:00,62.6,36.0,28.91,West,262,15.4,22.4,37,0.00,,,0.04,LWC V2.10 B1813,2013-02-21 16:28:00,
2013-02-21 10:33:00,63.0,36.3,28.91,West,260,14.1,19.2,37,0.00,,,0.04,LWC V2.10 B1813,2013-02-21 16:33:00,
2013-02-21 10:38:00,63.1,35.7,28.91,West,281,18.3,18.3,36,0.00,,,0.04,LWC V2.10 B1813,2013-02-21 16:38:00,
2013-02-21 10:43:00,63.3,35.9,28.91,WNW,292,17.4,21.9,36,0.00,,,0.04,LWC V2.10 B1813,2013-02-21 16:43:00,
2013-02-21 10:48:00,63.5,35.4,28.91,WNW,284,13.2,17.9,35,0.00,,,0.04,LWC V2.10 B1813,2013-02-21 16:48:00,
2013-02-21 10:53:00,63.5,35.4,28.91,West,280,20.1,20.1,35,0.00,,,0.04,LWC V2.10 B1813,2013-02-21 16:53:00,
2013-02-21 10:58:00,63.9,35.7,28.91,WNW,290,16.3,20.6,35,0.00,,,0.04,LWC V2.10 B1813,2013-02-21 16:58:00,
2013-02-21 11:03:00,64.0,35.8,28.91,NW,320,15.0,15.0,35,0.00,,,0.04,LWC V2.10 B1813,2013-02-21 17:03:00,
2013-02-21 11:08:00,64.4,35.4,28.91,NW,304,14.5,19.7,34,0.00,,,0.04,LWC V2.10 B1813,2013-02-21 17:08:00,
2013-02-21 11:13:00,65.1,36.0,28.91,West,280,14.1,15.4,34,0.00,,,0.04,LWC V2.10 B1813,2013-02-21 17:13:00,
2013-02-21 11:18:00,64.4,34.7,28.94,WNW,296,13.2,25.7,33,0.00,,,0.04,LWC V2.10 B1813,2013-02-21 17:18:00,
2013-02-21 11:23:00,64.4,34.7,28.94,WNW,292,13.2,13.2,33,0.00,,,0.04,LWC V2.10 B1813,2013-02-21 17:23:00,
2013-02-21 11:28:00,64.9,35.1,28.94,West,272,6.3,14.1,33,0.00,,,0.04,LWC V2.10 B1813,2013-02-21 17:28:00,
2013-02-21 11:33:00,64.9,35.1,28.91,NW,315,15.0,21.0,33,0.00,,,0.04,LWC V2.10 B1813,2013-02-21 17:33:00,
2013-02-21 11:38:00,65.7,35.8,28.91,WNW,287,8.7,17.9,33,0.00,,,0.04,LWC V2.10 B1813,2013-02-21 17:38:00,
2013-02-21 11:43:00,66.0,36.1,28.91,WNW,283,10.5,13.6,33,0.00,,,0.04,LWC V2.10 B1813,2013-02-21 17:43:00,
2013-02-21 11:48:00,66.2,34.7,28.91,West,275,15.4,17.4,31,0.00,,,0.04,LWC V2.10 B1813,2013-02-21 17:48:00,
2013-02-21 11:53:00,66.2,33.8,28.91,WSW,254,12.8,21.5,30,0.00,,,0.04,LWC V2.10 B1813,2013-02-21 17:53:00,
2013-02-21 11:58:00,66.2,32.1,28.91,West,261,7.6,17.4,28,0.00,,,0.04,LWC V2.10 B1813,2013-02-21 17:58:00,
2013-02-21 12:03:00,66.6,33.3,28.91,West,272,10.1,12.3,29,0.00,,,0.04,LWC V2.10 B1813,2013-02-21 18:03:00,
2013-02-21 12:08:00,66.6,33.3,28.91,WNW,284,8.3,15.4,29,0.00,,,0.04,LWC V2.10 B1813,2013-02-21 18:08:00,
2013-02-21 12:13:00,66.7,31.7,28.91,WNW,299,19.7,25.1,27,0.00,,,0.04,LWC V2.10 B1813,2013-02-21 18:13:00,
2013-02-21 12:18:00,66.7,30.8,28.91,West,266,10.5,22.4,26,0.00,,,0.04,LWC V2.10 B1813,2013-02-21 18:18:00,
2013-02-21 12:23:00,67.1,32.0,28.91,WNW,291,12.8,21.9,27,0.00,,,0.04,LWC V2.10 B1813,2013-02-21 18:23:00,
2013-02-21 12:28:00,66.9,31.8,28.91,WNW,301,11.4,17.4,27,0.00,,,0.04,LWC V2.10 B1813,2013-02-21 18:28:00,
2013-02-21 12:33:00,67.3,31.2,28.91,West,278,8.3,16.3,26,0.00,,,0.04,LWC V2.10 B1813,2013-02-21 18:33:00,
2013-02-21 12:38:00,67.8,32.6,28.91,WNW,296,4.0,15.4,27,0.00,,,0.04,LWC V2.10 B1813,2013-02-21 18:38:00,
2013-02-21 12:43:00,68.2,32.0,28.91,WNW,291,11.9,11.9,26,0.00,,,0.04,LWC V2.10 B1813,2013-02-21 18:43:00,
2013-02-21 12:48:00,68.2,32.0,28.88,West,278,8.3,14.5,26,0.00,,,0.04,LWC V2.10 B1813,2013-02-21 18:48:00,
2013-02-21 12:53:00,68.2,31.0,28.88,WNW,283,10.5,15.0,25,0.00,,,0.04,LWC V2.10 B1813,2013-02-21 18:53:00,
2013-02-21 12:58:00,68.7,30.5,28.88,West,260,10.5,15.0,24,0.00,,,0.04,LWC V2.10 B1813,2013-02-21 18:58:00,
2013-02-21 13:03:00,68.9,29.6,28.88,WSW,238,12.8,15.0,23,0.00,,,0.04,LWC V2.10 B1813,2013-02-21 19:03:00,
2013-02-21 13:08:00,69.4,30.0,28.88,WSW,257,9.6,10.5,23,0.00,,,0.04,LWC V2.10 B1813,2013-02-21 19:08:00,
2013-02-21 13:13:00,69.6,31.2,28.88,NW,311,12.3,15.9,24,0.00,,,0.04,LWC V2.10 B1813,2013-02-21 19:13:00,
2013-02-21 13:18:00,69.3,29.9,28.88,West,261,5.8,15.9,23,0.00,,,0.04,LWC V2.10 B1813,2013-02-21 19:18:00,
2013-02-21 13:23:00,70.0,29.4,28.88,WSW,253,8.7,16.8,22,0.00,,,0.04,LWC V2.10 B1813,2013-02-21 19:23:00,
2013-02-21 13:28:00,70.5,30.9,28.88,West,277,11.0,11.0,23,0.00,,,0.04,LWC V2.10 B1813,2013-02-21 19:28:00,
2013-02-21 13:33:00,70.5,29.8,28.88,West,261,12.3,13.2,22,0.00,,,0.04,LWC V2.10 B1813,2013-02-21 19:33:00,
2013-02-21 13:38:00,70.3,15.3,28.88,West,265,17.4,17.4,12,0.00,,,0.04,LWC V2.10 B1813,2013-02-21 19:38:00,
2013-02-21 13:43:00,70.3,8.9,28.88,WSW,257,13.2,17.4,9,0.00,,,0.04,LWC V2.10 B1813,2013-02-21 19:43:00,
2013-02-21 13:48:00,70.3,8.9,28.85,WNW,282,10.1,19.2,9,0.00,,,0.04,LWC V2.10 B1813,2013-02-21 19:48:00,
2013-02-21 13:53:00,71.1,24.0,28.85,West,270,7.6,14.5,17,0.00,,,0.04,LWC V2.10 B1813,2013-02-21 19:53:00,
2013-02-21 13:58:00,71.2,-7.7,28.85,West,270,17.4,17.9,4,0.00,,,0.04,LWC V2.10 B1813,2013-02-21 19:58:00,
2013-02-21 14:03:00,71.4,4.2,28.85,WSW,244,13.6,15.9,7,0.00,,,0.04,LWC V2.10 B1813,2013-02-21 20:03:00,
2013-02-21 14:08:00,71.2,9.5,28.85,WNW,298,15.4,19.7,9,0.00,,,0.04,LWC V2.10 B1813,2013-02-21 20:08:00,
2013-02-21 14:13:00,71.2,-7.7,28.85,SW,234,10.5,15.4,4,0.00,,,0.04,LWC V2.10 B1813,2013-02-21 20:13:00,
2013-02-21 14:18:00,71.8,-13.2,28.85,WSW,243,12.8,19.2,3,0.00,,,0.04,LWC V2.10 B1813,2013-02-21 20:18:00,
2013-02-21 14:23:00,72.1,-12.9,28.85,SW,229,16.8,17.0,3,0.00,,,0.04,LWC V2.10 B1813,2013-02-21 20:23:00,
2013-02-21 14:28:00,72.0,-13.0,28.85,WSW,253,12.8,17.0,3,0.00,,,0.04,LWC V2.10 B1813,2013-02-21 20:28:00,
2013-02-21 14:33:00,72.1,-12.9,28.85,West,261,16.8,16.8,3,0.00,,,0.04,LWC V2.10 B1813,2013-02-21 20:33:00,
2013-02-21 14:38:00,72.7,1.7,28.85,WSW,257,10.5,11.0,6,0.00,,,0.04,LWC V2.10 B1813,2013-02-21 20:38:00,
2013-02-21 14:43:00,72.7,-12.6,28.85,WNW,297,10.1,17.4,3,0.00,,,0.04,LWC V2.10 B1813,2013-02-21 20:43:00,
2013-02-21 14:48:00,72.7,-12.6,28.85,WSW,257,12.3,16.3,3,0.00,,,0.04,LWC V2.10 B1813,2013-02-21 20:48:00,
2013-02-21 14:53:00,73.2,-12.2,28.85,West,280,11.9,12.3,3,0.00,,,0.04,LWC V2.10 B1813,2013-02-21 20:53:00,
2013-02-21 14:58:00,72.9,-12.4,28.85,SW,221,13.2,19.7,3,0.00,,,0.04,LWC V2.10 B1813,2013-02-21 20:58:00,
2013-02-21 15:03:00,73.6,-19.9,28.85,NW,319,10.5,13.6,2,0.00,,,0.04,LWC V2.10 B1813,2013-02-21 21:03:00,
2013-02-21 15:08:00,73.0,-12.3,28.85,West,265,13.2,14.1,3,0.00,,,0.04,LWC V2.10 B1813,2013-02-21 21:08:00,
2013-02-21 15:13:00,73.9,-19.6,28.85,SSW,210,7.6,8.1,2,0.00,,,0.04,LWC V2.10 B1813,2013-02-21 21:13:00,
2013-02-21 15:18:00,73.8,-19.8,28.85,WNW,303,12.3,12.8,2,0.00,,,0.04,LWC V2.10 B1813,2013-02-21 21:18:00,
2013-02-21 15:23:00,74.1,-19.5,28.85,WNW,285,4.0,10.5,2,0.00,,,0.04,LWC V2.10 B1813,2013-02-21 21:23:00,
2013-02-21 15:28:00,74.1,-19.5,28.85,NW,326,7.6,12.3,2,0.00,,,0.04,LWC V2.10 B1813,2013-02-21 21:28:00,
2013-02-21 15:33:00,73.9,-19.6,28.85,West,273,11.0,11.0,2,0.00,,,0.04,LWC V2.10 B1813,2013-02-21 21:33:00,
2013-02-21 15:38:00,74.1,-19.5,28.85,West,266,8.1,12.8,2,0.00,,,0.04,LWC V2.10 B1813,2013-02-21 21:38:00,
2013-02-21 15:43:00,74.1,-19.5,28.85,West,267,8.1,15.4,2,0.00,,,0.04,LWC V2.10 B1813,2013-02-21 21:43:00,
2013-02-21 15:48:00,74.3,-19.4,28.85,NW,326,5.8,10.1,2,0.00,,,0.04,LWC V2.10 B1813,2013-02-21 21:48:00,
2013-02-21 15:53:00,74.3,-19.4,28.85,West,276,8.1,16.8,2,0.00,,,0.04,LWC V2.10 B1813,2013-02-21 21:53:00,
2013-02-21 15:58:00,74.7,-19.2,28.85,West,260,9.2,11.0,2,0.00,,,0.04,LWC V2.10 B1813,2013-02-21 21:58:00,
2013-02-21 16:03:00,75.0,-18.9,28.85,WSW,246,8.3,13.2,2,0.00,,,0.04,LWC V2.10 B1813,2013-02-21 22:03:00,
2013-02-21 16:08:00,74.7,-19.2,28.85,West,274,12.8,18.8,2,0.00,,,0.04,LWC V2.10 B1813,2013-02-21 22:08:00,
2013-02-21 16:13:00,74.8,-19.1,28.85,WSW,248,8.1,13.2,2,0.00,,,0.04,LWC V2.10 B1813,2013-02-21 22:13:00,
2013-02-21 16:18:00,74.8,-19.1,28.85,West,269,11.0,15.4,2,0.00,,,0.04,LWC V2.10 B1813,2013-02-21 22:18:00,
2013-02-21 16:23:00,74.5,-19.3,28.85,West,280,10.1,15.4,2,0.00,,,0.04,LWC V2.10 B1813,2013-02-21 22:23:00,
2013-02-21 16:28:00,74.8,-19.1,28.85,WNW,299,9.2,17.4,2,0.00,,,0.04,LWC V2.10 B1813,2013-02-21 22:28:00,
2013-02-21 16:33:00,74.5,-19.3,28.85,West,264,10.1,16.8,2,0.00,,,0.04,LWC V2.10 B1813,2013-02-21 22:33:00,
2013-02-21 16:38:00,74.3,-19.4,28.85,WNW,297,14.5,17.4,2,0.00,,,0.04,LWC V2.10 B1813,2013-02-21 22:38:00,
2013-02-21 16:43:00,74.1,-19.5,28.85,WNW,287,14.5,17.4,2,0.00,,,0.04,LWC V2.10 B1813,2013-02-21 22:43:00,
2013-02-21 16:48:00,73.8,-19.8,28.85,WSW,248,15.4,15.4,2,0.00,,,0.04,LWC V2.10 B1813,2013-02-21 22:48:00,
2013-02-21 16:53:00,73.6,-19.9,28.85,West,276,12.3,12.3,2,0.00,,,0.04,LWC V2.10 B1813,2013-02-21 22:53:00,
2013-02-21 16:58:00,73.0,-12.3,28.85,SW,221,8.1,13.2,3,0.00,,,0.04,LWC V2.10 B1813,2013-02-21 22:58:00,
2013-02-21 17:03:00,73.0,-12.3,28.88,NW,317,14.1,14.1,3,0.00,,,0.04,LWC V2.10 B1813,2013-02-21 23:03:00,
2013-02-21 17:08:00,73.2,-12.2,28.88,WNW,286,5.8,10.1,3,0.00,,,0.04,LWC V2.10 B1813,2013-02-21 23:08:00,
2013-02-21 17:13:00,72.9,-12.4,28.88,WNW,290,12.3,12.3,3,0.00,,,0.04,LWC V2.10 B1813,2013-02-21 23:13:00,
2013-02-21 17:18:00,72.7,-12.6,28.88,WNW,286,4.0,8.3,3,0.00,,,0.04,LWC V2.10 B1813,2013-02-21 23:18:00,
2013-02-21 17:24:00,72.3,-12.8,28.88,West,263,5.8,11.0,3,0.00,,,0.04,LWC V2.10 B1813,2013-02-21 23:24:00,
2013-02-21 17:29:00,72.3,-12.8,28.88,West,266,8.1,10.1,3,0.00,,,0.04,LWC V2.10 B1813,2013-02-21 23:29:00,
2013-02-21 17:34:00,72.0,-13.0,28.88,WNW,288,4.0,10.1,3,0.00,,,0.04,LWC V2.10 B1813,2013-02-21 23:34:00,
2013-02-21 17:39:00,71.8,-13.2,28.88,NW,308,6.3,10.1,3,0.00,,,0.04,LWC V2.10 B1813,2013-02-21 23:39:00,
2013-02-21 17:44:00,71.4,-13.4,28.88,NNW,329,10.1,10.1,3,0.00,,,0.04,LWC V2.10 B1813,2013-02-21 23:44:00,
2013-02-21 17:49:00,71.1,-13.6,28.88,WSW,257,11.0,11.0,3,0.00,,,0.04,LWC V2.10 B1813,2013-02-21 23:49:00,
2013-02-21 17:54:00,70.9,-13.8,28.88,West,261,4.0,10.5,3,0.00,,,0.04,LWC V2.10 B1813,2013-02-21 23:54:00,
2013-02-21 17:59:00,70.7,-13.9,28.88,WNW,283,5.4,8.7,3,0.00,,,0.04,LWC V2.10 B1813,2013-02-21 23:59:00,
2013-02-21 18:04:00,70.7,-13.9,28.88,WNW,284,4.5,5.8,3,0.00,,,0.04,LWC V2.10 B1813,2013-02-22 00:04:00,
2013-02-21 18:09:00,70.7,-13.9,28.88,West,281,4.9,6.3,3,0.00,,,0.04,LWC V2.10 B1813,2013-02-22 00:09:00,
2013-02-21 18:14:00,70.5,-14.0,28.88,WNW,303,4.0,7.2,3,0.00,,,0.04,LWC V2.10 B1813,2013-02-22 00:14:00,
2013-02-21 18:19:00,70.3,-14.1,28.91,WNW,292,5.8,6.3,3,0.00,,,0.04,LWC V2.10 B1813,2013-02-22 00:19:00,
2013-02-21 18:24:00,69.8,-14.5,28.91,WNW,303,3.1,3.6,3,0.00,,,0.04,LWC V2.10 B1813,2013-02-22 00:24:00,
2013-02-21 18:29:00,69.3,-9.1,28.91,West,277,3.6,6.3,4,0.00,,,0.04,LWC V2.10 B1813,2013-02-22 00:29:00,
2013-02-21 18:34:00,68.9,-9.4,28.91,WNW,303,2.7,4.9,4,0.00,,,0.04,LWC V2.10 B1813,2013-02-22 00:34:00,
2013-02-21 18:39:00,68.5,-9.6,28.91,WNW,290,2.2,2.2,4,0.00,,,0.04,LWC V2.10 B1813,2013-02-22 00:39:00,
2013-02-21 18:44:00,68.0,-10.0,28.91,North,353,0.0,3.1,4,0.00,,,0.04,LWC V2.10 B1813,2013-02-22 00:44:00,
2013-02-21 18:49:00,67.8,-10.1,28.91,NW,316,2.2,5.8,4,0.00,,,0.04,LWC V2.10 B1813,2013-02-22 00:49:00,
2013-02-21 18:54:00,68.0,-10.0,28.91,NW,309,2.7,4.9,4,0.00,,,0.04,LWC V2.10 B1813,2013-02-22 00:54:00,
2013-02-21 18:59:00,67.8,-10.1,28.91,NW,322,0.0,2.2,4,0.00,,,0.04,LWC V2.10 B1813,2013-02-22 00:59:00,
2013-02-21 19:04:00,67.5,-10.4,28.91,NNW,332,2.2,2.7,4,0.00,,,0.04,LWC V2.10 B1813,2013-02-22 01:04:00,
2013-02-21 19:09:00,67.5,-10.4,28.91,NNW,348,3.6,3.6,4,0.00,,,0.04,LWC V2.10 B1813,2013-02-22 01:09:00,
2013-02-21 19:14:00,67.3,-10.5,28.94,North,353,4.0,4.0,4,0.00,,,0.04,LWC V2.10 B1813,2013-02-22 01:14:00,
2013-02-21 19:19:00,67.1,-10.6,28.94,NNW,339,3.6,3.6,4,0.00,,,0.04,LWC V2.10 B1813,2013-02-22 01:19:00,
2013-02-21 19:24:00,67.1,-10.6,28.94,NNW,345,3.6,4.0,4,0.00,,,0.04,LWC V2.10 B1813,2013-02-22 01:24:00,
2013-02-21 19:29:00,66.7,-10.8,28.94,NNW,342,2.2,2.2,4,0.00,,,0.04,LWC V2.10 B1813,2013-02-22 01:29:00,
2013-02-21 19:34:00,66.4,-11.1,28.94,North,10,3.1,3.1,4,0.00,,,0.04,LWC V2.10 B1813,2013-02-22 01:34:00,
2013-02-21 19:39:00,65.8,-11.5,28.94,North,10,3.1,3.1,4,0.00,,,0.04,LWC V2.10 B1813,2013-02-22 01:39:00,
2013-02-21 19:44:00,65.5,-11.7,28.94,North,357,3.1,4.0,4,0.00,,,0.04,LWC V2.10 B1813,2013-02-22 01:44:00,
2013-02-21 19:49:00,64.9,-12.1,28.94,North,11,2.2,4.0,4,0.00,,,0.04,LWC V2.10 B1813,2013-02-22 01:49:00,
2013-02-21 19:54:00,64.6,-12.3,28.94,North,0,2.7,3.1,4,0.00,,,0.04,LWC V2.10 B1813,2013-02-22 01:54:00,
2013-02-21 19:59:00,64.8,-12.2,28.94,North,357,2.7,2.7,4,0.00,,,0.04,LWC V2.10 B1813,2013-02-22 01:59:00,
2013-02-21 20:04:00,64.9,-12.1,28.94,NNW,329,3.1,3.1,4,0.00,,,0.04,LWC V2.10 B1813,2013-02-22 02:04:00,
2013-02-21 20:09:00,64.9,-12.1,28.94,NW,317,0.0,2.7,4,0.00,,,0.04,LWC V2.10 B1813,2013-02-22 02:09:00,
2013-02-21 20:14:00,64.4,-12.5,28.94,North,353,0.0,2.2,4,0.00,,,0.04,LWC V2.10 B1813,2013-02-22 02:14:00,
2013-02-21 20:19:00,63.9,-8.4,28.94,North,353,0.0,0.0,5,0.00,,,0.04,LWC V2.10 B1813,2013-02-22 02:19:00,
2013-02-21 20:24:00,63.7,-8.5,28.94,NNW,338,3.1,3.1,5,0.00,,,0.04,LWC V2.10 B1813,2013-02-22 02:24:00,
2013-02-21 20:29:00,64.0,-8.2,28.94,NW,324,2.7,3.1,5,0.00,,,0.04,LWC V2.10 B1813,2013-02-22 02:29:00,
2013-02-21 20:34:00,64.0,-8.2,28.94,NNW,328,4.9,5.4,5,0.00,,,0.04,LWC V2.10 B1813,2013-02-22 02:34:00,
2013-02-21 20:39:00,63.7,-8.5,28.94,North,0,4.0,4.9,5,0.00,,,0.04,LWC V2.10 B1813,2013-02-22 02:39:00,
2013-02-21 20:44:00,62.8,-9.1,28.94,North,357,3.1,4.9,5,0.00,,,0.04,LWC V2.10 B1813,2013-02-22 02:44:00,
2013-02-21 20:49:00,62.1,-9.6,28.94,North,353,3.6,5.4,5,0.00,,,0.04,LWC V2.10 B1813,2013-02-22 02:49:00,
2013-02-21 20:54:00,61.9,-9.8,28.94,NNW,336,3.6,4.5,5,0.00,,,0.04,LWC V2.10 B1813,2013-02-22 02:54:00,
2013-02-21 20:59:00,61.0,-10.4,28.94,NNW,335,4.5,5.4,5,0.00,,,0.04,LWC V2.10 B1813,2013-02-22 02:59:00,
2013-02-21 21:04:00,60.3,-7.2,28.94,NNW,337,3.1,5.4,6,0.00,,,0.04,LWC V2.10 B1813,2013-02-22 03:04:00,
2013-02-21 21:09:00,59.9,-7.5,28.94,NNW,343,2.7,4.9,6,0.00,,,0.04,LWC V2.10 B1813,2013-02-22 03:09:00,
2013-02-21 21:14:00,59.2,-8.0,28.94,North,357,2.7,4.0,6,0.00,,,0.04,LWC V2.10 B1813,2013-02-22 03:14:00,
2013-02-21 21:19:00,58.8,-8.3,28.94,North,0,3.1,4.0,6,0.00,,,0.04,LWC V2.10 B1813,2013-02-22 03:19:00,
2013-02-21 21:24:00,59.0,-8.1,28.94,NNW,348,0.0,3.6,6,0.00,,,0.04,LWC V2.10 B1813,2013-02-22 03:24:00,
2013-02-21 21:29:00,58.8,-5.1,28.97,NNW,343,2.7,4.0,7,0.00,,,0.04,LWC V2.10 B1813,2013-02-22 03:29:00,
2013-02-21 21:34:00,58.3,-5.5,28.97,NNW,343,0.0,3.6,7,0.00,,,0.04,LWC V2.10 B1813,2013-02-22 03:34:00,
2013-02-21 21:39:00,58.3,-5.5,28.97,NW,310,0.0,3.1,7,0.00,,,0.04,LWC V2.10 B1813,2013-02-22 03:39:00,
2013-02-21 21:44:00,58.3,-5.5,28.97,NW,314,2.2,2.7,7,0.00,,,0.04,LWC V2.10 B1813,2013-02-22 03:44:00,
2013-02-21 21:49:00,57.9,-0.5,28.97,WNW,294,0.0,0.0,9,0.00,,,0.04,LWC V2.10 B1813,2013-02-22 03:49:00,
2013-02-21 21:54:00,57.2,5.1,28.97,WNW,294,0.0,0.0,12,0.00,,,0.04,LWC V2.10 B1813,2013-02-22 03:54:00,
2013-02-21 21:59:00,57.0,1.0,29.00,SE,141,0.0,0.0,10,0.00,,,0.04,LWC V2.10 B1813,2013-02-22 03:59:00,
2013-02-21 22:04:00,57.7,-0.7,29.00,SE,142,0.0,0.0,9,0.00,,,0.04,LWC V2.10 B1813,2013-02-22 04:04:00,
2013-02-21 22:09:00,57.9,-0.5,29.00,SE,142,0.0,0.0,9,0.00,,,0.04,LWC V2.10 B1813,2013-02-22 04:09:00,
2013-02-21 22:14:00,57.7,-0.7,29.00,SE,143,3.1,3.1,9,0.00,,,0.04,LWC V2.10 B1813,2013-02-22 04:14:00,
2013-02-21 22:19:00,57.4,5.2,29.00,ESE,111,2.7,3.6,12,0.00,,,0.04,LWC V2.10 B1813,2013-02-22 04:19:00,
2013-02-21 22:24:00,57.7,5.5,29.00,SE,126,0.0,2.7,12,0.00,,,0.04,LWC V2.10 B1813,2013-02-22 04:24:00,
2013-02-21 22:29:00,58.3,5.9,29.00,SE,126,0.0,0.0,12,0.00,,,0.04,LWC V2.10 B1813,2013-02-22 04:29:00,
2013-02-21 22:34:00,58.6,6.2,29.00,SE,126,0.0,0.0,12,0.00,,,0.04,LWC V2.10 B1813,2013-02-22 04:34:00,
2013-02-21 22:39:00,59.2,6.6,29.00,SE,126,0.0,0.0,12,0.00,,,0.04,LWC V2.10 B1813,2013-02-22 04:39:00,
2013-02-21 22:44:00,59.2,6.6,29.00,SE,126,0.0,0.0,12,0.00,,,0.04,LWC V2.10 B1813,2013-02-22 04:44:00,
2013-02-21 22:49:00,59.0,6.5,29.00,SE,126,0.0,0.0,12,0.00,,,0.04,LWC V2.10 B1813,2013-02-22 04:49:00,
2013-02-21 22:54:00,59.0,6.5,29.00,SE,126,0.0,0.0,12,0.00,,,0.04,LWC V2.10 B1813,2013-02-22 04:54:00,
2013-02-21 22:59:00,59.0,9.9,29.00,NNE,13,3.1,3.6,14,0.00,,,0.04,LWC V2.10 B1813,2013-02-22 04:59:00,
2013-02-21 23:00:00,59.0,9.9,29.00,NNE,13,3.1,3.6,14,0.00,,,0.04,LWC V2.10 B1813,2013-02-22 05:00:00,
2013-02-21 23:05:00,58.5,9.5,29.00,North,2,3.6,3.6,14,0.00,,,0.04,LWC V2.10 B1813,2013-02-22 05:05:00,
2013-02-21 23:10:00,57.7,13.2,29.00,North,3,3.1,4.0,17,0.00,,,0.04,LWC V2.10 B1813,2013-02-22 05:10:00,
2013-02-21 23:15:00,57.0,16.4,28.97,NNE,15,3.6,5.4,20,0.00,,,0.04,LWC V2.10 B1813,2013-02-22 05:15:00,
2013-02-21 23:20:00,56.7,16.1,28.97,NNE,18,5.4,6.3,20,0.00,,,0.04,LWC V2.10 B1813,2013-02-22 05:20:00,
2013-02-21 23:25:00,57.0,18.6,28.97,North,0,0.0,5.4,22,0.00,,,0.04,LWC V2.10 B1813,2013-02-22 05:25:00,
2013-02-21 23:30:00,56.8,18.4,28.97,NNE,16,5.4,5.4,22,0.00,,,0.04,LWC V2.10 B1813,2013-02-22 05:30:00,
2013-02-21 23:35:00,56.7,18.3,28.97,NE,42,0.0,2.2,22,0.00,,,0.04,LWC V2.10 B1813,2013-02-22 05:35:00,
2013-02-21 23:40:00,56.1,20.8,28.97,NE,43,2.2,2.7,25,0.00,,,0.04,LWC V2.10 B1813,2013-02-22 05:40:00,
2013-02-21 23:45:00,56.1,20.8,28.94,NNE,15,3.1,5.4,25,0.00,,,0.04,LWC V2.10 B1813,2013-02-22 05:45:00,
2013-02-21 23:50:00,56.5,21.1,28.94,NNE,12,0.0,4.9,25,0.00,,,0.04,LWC V2.10 B1813,2013-02-22 05:50:00,
2013-02-21 23:55:00,56.5,21.1,28.94,North,357,0.0,2.2,25,0.00,,,0.04,LWC V2.10 B1813,2013-02-22 05:55:00,